Time;durP1;ratioP1;P1;durP2;ratioP2;P2;SDS_P1;SDS_P2;PMS_P1;PMS_P2;Temp;Humidity;BMP_temperature;BMP_pressure;BME280_temperature;BME280_humidity;BME280_pressure;Samples;Min_cycle;Max_cycle;Signal;HPM_P1;HPM_P2
2023/01/09 00:01:49;;;;;;;;;;;;;;;;;;6285995;22;19922;-85
2023/01/09 00:04:15;;;;;;;;;;;;;;;;;;6286577;22;20429;-85
2023/01/09 00:06:42;;;;;;;;;;;;;;;;;;6236037;22;19919;-85
2023/01/09 00:09:08;;;;;;;;;;;;;;;;;;6287854;22;20369;-85
2023/01/09 00:11:34;;;;;;;;;;;;;;;;;;6286528;22;19953;-85
2023/01/09 00:14:03;;;;;;;;;;;;;;;;;;6256743;22;19992;-85
2023/01/09 00:16:29;;;;;;;;;;;;;;;;;;6261805;22;20767;-85
2023/01/09 00:18:55;;;;;;;;;;;;;;;;;;6286657;22;19922;-85
2023/01/09 00:21:21;;;;;;;;;;;;;;;;;;6262092;22;19922;-84
2023/01/09 00:23:47;;;;;;;;;;;;;;;;;;6261811;22;19919;-84
2023/01/09 00:26:13;;;;;;;;;;;;;;;;;;6260815;22;19923;-85
2023/01/09 00:28:41;;;;;;;;;;;;;;;;;;6236876;22;19923;-85
2023/01/09 00:31:07;;;;;;;;;;;;;;;;;;6285772;22;19919;-85
2023/01/09 00:33:33;;;;;;;;;;;;;;;;;;6287842;22;19919;-85
2023/01/09 00:35:59;;;;;;;;;;;;;;;;;;6284518;22;19952;-85
2023/01/09 00:38:29;;;;;;;;;;;;;;;;;;6276487;22;20506;-85
2023/01/09 00:40:55;;;;;;;;;;;;;;;;;;6262827;22;19925;-85
2023/01/09 00:43:21;;;;;;;;;;;;;;;;;;6267534;22;19919;-85
2023/01/09 00:45:47;;;;;;;;;;;;;;;;;;6267468;22;19918;-85
2023/01/09 00:48:13;;;;;;;;;;;;;;;;;;6265090;22;19922;-84
2023/01/09 00:50:39;;;;;;;;;;;;;;;;;;6293634;22;19922;-85
2023/01/09 00:53:05;;;;;;;;;;;;;;;;;;6288334;22;19919;-84
2023/01/09 00:55:31;;;;;;;;;;;;;;;;;;6266420;22;20351;-85
2023/01/09 00:57:57;;;;;;;;;;;;;;;;;;6314611;22;19954;-85
2023/01/09 01:00:23;;;;;;;;;;;;;;;;;;6293528;22;19979;-85
2023/01/09 01:02:49;;;;;;;;;;;;;;;;;;6267776;22;19922;-85
2023/01/09 01:08:00;;;;;;;;;;;;;;;;;;6288071;22;19994;-84
2023/01/09 01:10:29;;;;;;;;;;;;;;;;;;6272365;22;20342;-84
2023/01/09 01:12:58;;;;;;;;;;;;;;;;;;6268746;22;19919;-85
2023/01/09 01:15:28;;;;;;;;;;;;;;;;;;6323184;22;19922;-85
2023/01/09 01:18:00;;;;;;;;;;;;;;;;;;6264346;22;19975;-84
2023/01/09 01:20:27;;;;;;;;;;;;;;;;;;6295328;22;19919;-84
2023/01/09 01:22:59;;;;;;;;;;;;;;;;;;6288740;22;20526;-85
2023/01/09 01:25:32;;;;;;;;;;;;;;;;;;6266561;22;19919;-84
2023/01/09 01:27:58;;;;;;;;;;;;;;;;;;6263475;22;19919;-84
2023/01/09 01:30:35;;;;;;;;;;;;;;;;;;6269029;22;19923;-85
2023/01/09 01:33:04;;;;;;;;;;;;;;;;;;6289241;22;19993;-85
2023/01/09 01:35:30;;;;;;;;;;;;;;;;;;6293439;22;19997;-85
2023/01/09 01:38:08;;;;;;;;;;;;;;;;;;6265565;22;20841;-85
2023/01/09 01:40:42;;;;;;;;;;;;;;;;;;6268770;22;19982;-85
2023/01/09 01:43:17;;;;;;;;;;;;;;;;;;6267693;22;19918;-85
2023/01/09 01:45:43;;;;;;;;;;;;;;;;;;6266588;22;20001;-84
2023/01/09 01:48:21;;;;;;;;;;;;;;;;;;6267073;22;20339;-85
2023/01/09 01:50:47;;;;;;;;;;;;;;;;;;6296421;22;19928;-84
2023/01/09 01:53:19;;;;;;;;;;;;;;;;;;6261067;22;19918;-85
2023/01/09 01:55:48;;;;;;;;;;;;;;;;;;6265819;22;19961;-84
2023/01/09 01:58:17;;;;;;;;;;;;;;;;;;6265121;22;20397;-84
2023/01/09 02:00:46;;;;;;;;;;;;;;;;;;6262295;22;19993;-84
2023/01/09 02:03:22;;;;;;;;;;;;;;;;;;6261640;22;20183;-85
2023/01/09 02:05:48;;;;;;;;;;;;;;;;;;6264557;22;19951;-85
2023/01/09 02:08:21;;;;;;;;;;;;;;;;;;6287508;22;20327;-85
2023/01/09 02:11:11;;;;;;;;;;;;;;;;;;6291727;22;19918;-85
2023/01/09 02:13:43;;;;;;;;;;;;;;;;;;6267811;22;19918;-84
2023/01/09 02:16:11;;;;;;;;;;;;;;;;;;6264099;22;20131;-85
2023/01/09 02:18:53;;;;;;;;;;;;;;;;;;6267372;22;20340;-84
2023/01/09 02:21:30;;;;;;;;;;;;;;;;;;6265783;22;20339;-85
2023/01/09 02:24:12;;;;;;;;;;;;;;;;;;6261009;22;19919;-85
2023/01/09 02:26:38;;;;;;;;;;;;;;;;;;6292393;22;20252;-85
2023/01/09 02:29:07;;;;;;;;;;;;;;;;;;6262099;22;19918;-85
2023/01/09 02:31:33;;;;;;;;;;;;;;;;;;6263105;22;20007;-85
2023/01/09 02:34:11;;;;;;;;;;;;;;;;;;6260279;22;19953;-85
2023/01/09 02:36:40;;;;;;;;;;;;;;;;;;6261068;22;19972;-85
2023/01/09 02:42:10;;;;;;;;;;;;;;;;;;6231282;22;19946;-85
2023/01/09 02:44:43;;;;;;;;;;;;;;;;;;6263457;22;19919;-85
2023/01/09 02:50:01;;;;;;;;;;;;;;;;;;6284650;22;20512;-85
2023/01/09 02:52:27;;;;;;;;;;;;;;;;;;6264556;22;19919;-85
2023/01/09 02:55:07;;;;;;;;;;;;;;;;;;6289596;22;20240;-85
2023/01/09 02:57:57;;;;;;;;;;;;;;;;;;6261408;22;20553;-85
2023/01/09 03:00:34;;;;;;;;;;;;;;;;;;6287728;22;19918;-85
2023/01/09 03:03:02;;;;;;;;;;;;;;;;;;6253449;22;20360;-85
2023/01/09 03:05:34;;;;;;;;;;;;;;;;;;6259196;22;20239;-85
2023/01/09 03:08:09;;;;;;;;;;;;;;;;;;6254251;22;19923;-85
2023/01/09 03:10:53;;;;;;;;;;;;;;;;;;6283816;22;19919;-85
2023/01/09 03:13:28;;;;;;;;;;;;;;;;;;6282334;22;19926;-85
2023/01/09 03:16:06;;;;;;;;;;;;;;;;;;6257065;22;19973;-85
2023/01/09 03:18:50;;;;;;;;;;;;;;;;;;6285529;22;19919;-85
2023/01/09 03:21:21;;;;;;;;;;;;;;;;;;6255896;22;20926;-85
2023/01/09 03:23:56;;;;;;;;;;;;;;;;;;6259317;22;19993;-85
2023/01/09 03:26:23;;;;;;;;;;;;;;;;;;6257769;22;19942;-85
2023/01/09 03:28:51;;;;;;;;;;;;;;;;;;6242032;22;20323;-85
2023/01/09 03:31:34;;;;;;;;;;;;;;;;;;6232188;22;19926;-85
2023/01/09 03:34:21;;;;;;;;;;;;;;;;;;6288032;22;19934;-85
2023/01/09 03:37:00;;;;;;;;;;;;;;;;;;6261506;22;20157;-85
2023/01/09 03:39:26;;;;;;;;;;;;;;;;;;6267882;22;19958;-85
2023/01/09 03:42:01;;;;;;;;;;;;;;;;;;6263559;22;20217;-85
2023/01/09 03:44:30;;;;;;;;;;;;;;;;;;6264941;22;19918;-85
2023/01/09 03:47:09;;;;;;;;;;;;;;;;;;;;;
2023/01/09 03:49:35;;;;;;;;;;;;;;;;;;6286907;22;19925;-85
2023/01/09 03:52:05;;;;;;;;;;;;;;;;;;6283706;22;19945;-85
2023/01/09 03:54:58;;;;;;;;;;;;;;;;;;6296661;22;20306;-85
2023/01/09 03:57:58;;;;;;;;;;;;;;;;;;;;;
2023/01/09 04:00:27;;;;;;;;;;;;;;;;;;6287855;22;20332;-85
2023/01/09 04:03:11;;;;;;;;;;;;;;;;;;6259616;22;20378;-86
2023/01/09 04:05:49;;;;;;;;;;;;;;;;;;6264966;22;19918;-85
2023/01/09 04:08:26;;;;;;;;;;;;;;;;;;6285544;22;19989;-85
2023/01/09 04:10:52;;;;;;;;;;;;;;;;;;6279969;22;20435;-85
2023/01/09 04:13:31;;;;;;;;;;;;;;;;;;6285553;22;19918;-85
2023/01/09 04:15:57;;;;;;;;;;;;;;;;;;6288282;22;19919;-85
2023/01/09 04:18:32;;;;;;;;;;;;;;;;;;6267624;22;19918;-85
2023/01/09 04:21:18;;;;;;;;;;;;;;;;;;6263836;22;19923;-85
2023/01/09 04:23:47;;;;;;;;;;;;;;;;;;6263983;22;19918;-85
2023/01/09 04:29:05;;;;;;;;;;;;;;;;;;6287044;22;19924;-85
2023/01/09 04:31:40;;;;;;;;;;;;;;;;;;6266763;22;20572;-85
2023/01/09 04:34:11;;;;;;;;;;;;;;;;;;6261113;22;20387;-85
2023/01/09 04:36:47;;;;;;;;;;;;;;;;;;6292107;22;19919;-85
2023/01/09 04:39:19;;;;;;;;;;;;;;;;;;6265506;22;19918;-85
2023/01/09 04:44:42;;;;;;;;;;;;;;;;;;6289781;22;19926;-85
2023/01/09 04:47:25;;;;;;;;;;;;;;;;;;;;;
2023/01/09 04:50:00;;;;;;;;;;;;;;;;;;6286600;22;20283;-85
2023/01/09 04:52:31;;;;;;;;;;;;;;;;;;6266824;22;20707;-85
2023/01/09 04:55:00;;;;;;;;;;;;;;;;;;6262104;22;19923;-85
2023/01/09 04:57:34;;;;;;;;;;;;;;;;;;6265620;22;20327;-85
2023/01/09 05:00:10;;;;;;;;;;;;;;;;;;6258018;22;20036;-85
2023/01/09 05:02:40;;;;;;;;;;;;;;;;;;6287493;22;19999;-85
2023/01/09 05:05:15;;;;;;;;;;;;;;;;;;6264018;22;19996;-85
2023/01/09 05:07:43;;;;;;;;;;;;;;;;;;6262148;22;20505;-85
2023/01/09 05:10:19;;;;;;;;;;;;;;;;;;6234465;22;19918;-85
2023/01/09 05:12:51;;;;;;;;;;;;;;;;;;6291781;22;19922;-85
2023/01/09 05:15:17;;;;;;;;;;;;;;;;;;6263090;22;19922;-85
2023/01/09 05:17:49;;;;;;;;;;;;;;;;;;6283410;22;19918;-85
2023/01/09 05:20:18;;;;;;;;;;;;;;;;;;6263943;22;19972;-85
2023/01/09 05:23:02;;;;;;;;;;;;;;;;;;6264390;22;19926;-85
2023/01/09 05:25:36;;;;;;;;;;;;;;;;;;6316813;22;20301;-85
2023/01/09 05:28:27;;;;;;;;;;;;;;;;;;;;;
2023/01/09 05:31:14;;;;;;;;;;;;;;;;;;6289704;22;19918;-85
2023/01/09 05:33:43;;;;;;;;;;;;;;;;;;6262402;22;19925;-84
2023/01/09 05:36:15;;;;;;;;;;;;;;;;;;6262668;22;20009;-84
2023/01/09 05:38:41;;;;;;;;;;;;;;;;;;6290872;22;19918;-85
2023/01/09 05:41:19;;;;;;;;;;;;;;;;;;6263926;22;19933;-85
2023/01/09 05:46:46;;;;;;;;;;;;;;;;;;6316490;22;19963;-85
2023/01/09 05:49:15;;;;;;;;;;;;;;;;;;6272540;22;19918;-85
2023/01/09 05:51:59;;;;;;;;;;;;;;;;;;6267145;22;19969;-85
2023/01/09 05:54:28;;;;;;;;;;;;;;;;;;6256521;22;20233;-85
2023/01/09 05:57:09;;;;;;;;;;;;;;;;;;6254327;22;19923;-85
2023/01/09 05:59:43;;;;;;;;;;;;;;;;;;6177054;22;19923;-85
2023/01/09 06:02:09;;;;;;;;;;;;;;;;;;6215564;22;20469;-85
2023/01/09 06:05:02;;;;;;;;;;;;;;;;;;6140463;23;19982;-85
2023/01/09 06:07:45;;;;;;;;;;;;;;;;;;6194620;22;19934;-85
2023/01/09 06:10:15;;;;;;;;;;;;;;;;;;6220454;22;20397;-85
2023/01/09 06:12:47;;;;;;;;;;;;;;;;;;6226242;22;20415;-85
2023/01/09 06:15:21;;;;;;;;;;;;;;;;;;6222513;22;19949;-84
2023/01/09 06:17:47;;;;;;;;;;;;;;;;;;6251687;22;19926;-84
2023/01/09 06:20:15;;;;;;;;;;;;;;;;;;6243475;22;19976;-85
2023/01/09 06:22:44;;;;;;;;;;;;;;;;;;6218861;22;20674;-85
2023/01/09 06:25:13;;;;;;;;;;;;;;;;;;6238488;22;19922;-84
2023/01/09 06:27:44;;;;;;;;;;;;;;;;;;6265504;22;19919;-84
2023/01/09 06:30:10;;;;;;;;;;;;;;;;;;6261878;22;19949;-84
2023/01/09 06:32:36;;;;;;;;;;;;;;;;;;6289324;22;20014;-84
2023/01/09 06:35:02;;;;;;;;;;;;;;;;;;6286230;22;19930;-84
2023/01/09 06:37:38;;;;;;;;;;;;;;;;;;;;;
2023/01/09 06:40:13;;;;;;;;;;;;;;;;;;6281741;22;19990;-84
2023/01/09 07:46:12;;;;;;;;;;;;;;;;;;6154540;22;19959;-88
2023/01/09 07:54:49;;;;;;;;;;;;;;;;;;6093455;23;19951;-89
2023/01/09 08:00:47;;;;;;;;;;;;;;;;;;;;;
2023/01/09 08:09:55;;;;;;;;;;;;;;;;;;6122430;23;19917;-91
2023/01/09 08:13:06;;;;;;;;;;;;;;;;;;6033468;23;19928;-91
2023/01/09 08:16:44;;;;;;;;;;;;;;;;;;;;;
2023/01/09 08:31:47;;;;;;;;;;;;;;;;;;;;;
2023/01/09 08:49:53;;;;;;;;;;;;;;;;;;6257777;22;19984;-86
2023/01/09 08:52:29;;;;;;;;;;;;;;;;;;6315878;22;19926;-86
2023/01/09 08:55:02;;;;;;;;;;;;;;;;;;6263432;22;19989;-86
2023/01/09 08:57:41;;;;;;;;;;;;;;;;;;6297632;22;19958;-86
2023/01/09 09:00:09;;;;;;;;;;;;;;;;;;6289819;22;19925;-86
2023/01/09 09:02:36;;;;;;;;;;;;;;;;;;6292509;22;20335;-85
2023/01/09 09:05:04;;;;;;;;;;;;;;;;;;6264387;22;19968;-86
2023/01/09 09:07:31;;;;;;;;;;;;;;;;;;6268178;22;20363;-86
2023/01/09 09:10:09;;;;;;;;;;;;;;;;;;6309506;22;20013;-86
2023/01/09 09:12:36;;;;;;;;;;;;;;;;;;6268255;22;19961;-86
2023/01/09 09:15:23;;;;;;;;;;;;;;;;;;6222770;23;19925;-86
2023/01/09 09:17:52;;;;;;;;;;;;;;;;;;6197831;23;19928;-86
2023/01/09 09:20:40;;;;;;;;;;;;;;;;;;6194093;23;19920;-86
2023/01/09 09:23:11;;;;;;;;;;;;;;;;;;6149123;23;19920;-86
2023/01/09 09:25:38;;;;;;;;;;;;;;;;;;6140026;23;19921;-86
2023/01/09 09:28:10;;;;;;;;;;;;;;;;;;6116099;23;19924;-86
2023/01/09 09:30:42;;;;;;;;;;;;;;;;;;6141956;23;19920;-86
2023/01/09 09:33:13;;;;;;;;;;;;;;;;;;6114222;23;19920;-86
2023/01/09 09:35:50;;;;;;;;;;;;;;;;;;6165957;23;19960;-86
2023/01/09 09:38:19;;;;;;;;;;;;;;;;;;6113297;23;19995;-86
2023/01/09 09:40:47;;;;;;;;;;;;;;;;;;6114997;23;20525;-86
2023/01/09 09:45:59;;;;;;;;;;;;;;;;;;6152806;23;19920;-86
2023/01/09 09:48:27;;;;;;;;;;;;;;;;;;6136539;23;19920;-86
2023/01/09 09:51:10;;;;;;;;;;;;;;;;;;6107071;23;19920;-86
2023/01/09 09:53:39;;;;;;;;;;;;;;;;;;6163821;23;19924;-86
2023/01/09 09:56:06;;;;;;;;;;;;;;;;;;6166764;23;19955;-86
2023/01/09 09:58:33;;;;;;;;;;;;;;;;;;6144494;23;20034;-86
2023/01/09 10:01:01;;;;;;;;;;;;;;;;;;6166999;23;19924;-86
2023/01/09 10:03:38;;;;;;;;;;;;;;;;;;;;;
2023/01/09 10:06:11;;;;;;;;;;;;;;;;;;6142982;23;20011;-86
2023/01/09 10:08:47;;;;;;;;;;;;;;;;;;6166761;23;20430;-86
2023/01/09 10:11:31;;;;;;;;;;;;;;;;;;6203506;22;19989;-86
2023/01/09 10:14:05;;;;;;;;;;;;;;;;;;6253613;22;19919;-86
2023/01/09 10:16:35;;;;;;;;;;;;;;;;;;6229623;22;19923;-86
2023/01/09 10:19:06;;;;;;;;;;;;;;;;;;6263458;22;20337;-86
2023/01/09 10:24:35;;;;;;;;;;;;;;;;;;6291246;22;19918;-86
2023/01/09 10:27:05;;;;;;;;;;;;;;;;;;6259115;22;19919;-86
2023/01/09 10:29:36;;;;;;;;;;;;;;;;;;6285190;22;19918;-86
2023/01/09 10:32:02;;;;;;;;;;;;;;;;;;6258675;22;20106;-86
2023/01/09 10:34:28;;;;;;;;;;;;;;;;;;6262045;22;20002;-86
2023/01/09 10:36:59;;;;;;;;;;;;;;;;;;6235330;22;19923;-86
2023/01/09 10:39:28;;;;;;;;;;;;;;;;;;6228796;22;19920;-86
2023/01/09 10:42:10;;;;;;;;;;;;;;;;;;6170355;23;20359;-86
2023/01/09 10:44:37;;;;;;;;;;;;;;;;;;6169083;23;19966;-86
2023/01/09 10:47:11;;;;;;;;;;;;;;;;;;6161799;23;19970;-86
2023/01/09 10:49:48;;;;;;;;;;;;;;;;;;;;;
2023/01/09 10:52:33;;;;;;;;;;;;;;;;;;6168488;23;19930;-86
2023/01/09 10:55:01;;;;;;;;;;;;;;;;;;6143303;23;20265;-86
2023/01/09 10:57:27;;;;;;;;;;;;;;;;;;6196744;23;20153;-85
2023/01/09 10:59:53;;;;;;;;;;;;;;;;;;6166606;23;20199;-86
2023/01/09 11:02:29;;;;;;;;;;;;;;;;;;6134307;23;19966;-86
2023/01/09 11:04:57;;;;;;;;;;;;;;;;;;6114337;23;20394;-86
2023/01/09 11:07:23;;;;;;;;;;;;;;;;;;6165421;23;20289;-86
2023/01/09 11:09:59;;;;;;;;;;;;;;;;;;6134034;23;19920;-85
2023/01/09 11:12:25;;;;;;;;;;;;;;;;;;6168621;23;19920;-86
2023/01/09 11:15:05;;;;;;;;;;;;;;;;;;6171006;23;20771;-86
2023/01/09 11:17:32;;;;;;;;;;;;;;;;;;6145960;23;20285;-85
2023/01/09 11:20:11;;;;;;;;;;;;;;;;;;6167412;23;19920;-86
2023/01/09 11:22:41;;;;;;;;;;;;;;;;;;6168500;23;19926;-86
2023/01/09 11:25:07;;;;;;;;;;;;;;;;;;6141485;23;19951;-86
2023/01/09 11:27:36;;;;;;;;;;;;;;;;;;6142654;23;19956;-86
2023/01/09 11:30:19;;;;;;;;;;;;;;;;;;;;;
2023/01/09 11:32:47;;;;;;;;;;;;;;;;;;6220969;22;20329;-86
2023/01/09 11:35:13;;;;;;;;;;;;;;;;;;6165720;23;19923;-86
2023/01/09 11:37:49;;;;;;;;;;;;;;;;;;6194973;23;20460;-86
2023/01/09 11:40:21;;;;;;;;;;;;;;;;;;6171605;23;19915;-86
2023/01/09 11:43:08;;;;;;;;;;;;;;;;;;6168209;23;19946;-86
2023/01/09 11:45:40;;;;;;;;;;;;;;;;;;6193836;23;19919;-86
2023/01/09 11:48:11;;;;;;;;;;;;;;;;;;6167417;23;19930;-86
2023/01/09 11:50:39;;;;;;;;;;;;;;;;;;6165354;23;19916;-86
2023/01/09 11:53:07;;;;;;;;;;;;;;;;;;6166450;23;20428;-86
2023/01/09 11:55:34;;;;;;;;;;;;;;;;;;6170193;23;19928;-86
2023/01/09 11:58:02;;;;;;;;;;;;;;;;;;6168436;23;19924;-86
2023/01/09 12:00:30;;;;;;;;;;;;;;;;;;6195420;23;20245;-86
2023/01/09 12:03:03;;;;;;;;;;;;;;;;;;6167414;23;20356;-86
2023/01/09 12:05:36;;;;;;;;;;;;;;;;;;6153093;23;20341;-85
2023/01/09 12:08:05;;;;;;;;;;;;;;;;;;6195850;23;19926;-86
2023/01/09 12:10:46;;;;;;;;;;;;;;;;;;6165806;23;19970;-86
2023/01/09 12:13:18;;;;;;;;;;;;;;;;;;6138461;23;19920;-86
2023/01/09 12:16:01;;;;;;;;;;;;;;;;;;6159982;23;20373;-86
2023/01/09 12:18:34;;;;;;;;;;;;;;;;;;6164396;23;20016;-86
2023/01/09 12:21:15;;;;;;;;;;;;;;;;;;6136198;23;20242;-85
2023/01/09 12:26:50;;;;;;;;;;;;;;;;;;6128058;23;19930;-86
2023/01/09 12:29:17;;;;;;;;;;;;;;;;;;6112097;23;19960;-86
2023/01/09 12:31:50;;;;;;;;;;;;;;;;;;6113935;23;19922;-86
2023/01/09 12:34:26;;;;;;;;;;;;;;;;;;6136668;23;19920;-86
2023/01/09 12:36:52;;;;;;;;;;;;;;;;;;6140290;23;20251;-86
2023/01/09 12:39:31;;;;;;;;;;;;;;;;;;6141006;23;19975;-86
2023/01/09 12:42:20;;;;;;;;;;;;;;;;;;6205255;23;19973;-86
2023/01/09 12:44:46;;;;;;;;;;;;;;;;;;6199647;23;19919;-86
2023/01/09 12:47:21;;;;;;;;;;;;;;;;;;6196971;23;19931;-86
2023/01/09 12:49:47;;;;;;;;;;;;;;;;;;6225070;23;19919;-86
2023/01/09 12:52:24;;;;;;;;;;;;;;;;;;6277504;22;19926;-86
2023/01/09 12:54:58;;;;;;;;;;;;;;;;;;6256490;22;20276;-86
2023/01/09 12:57:29;;;;;;;;;;;;;;;;;;6259925;22;19919;-86
2023/01/09 12:59:55;;;;;;;;;;;;;;;;;;6205155;22;20332;-86
2023/01/09 13:02:24;;;;;;;;;;;;;;;;;;6168589;23;19977;-86
2023/01/09 13:05:08;;;;;;;;;;;;;;;;;;6150556;23;19920;-85
2023/01/09 13:07:42;;;;;;;;;;;;;;;;;;6170351;23;19964;-86
2023/01/09 13:10:15;;;;;;;;;;;;;;;;;;6192029;23;19947;-86
2023/01/09 13:12:43;;;;;;;;;;;;;;;;;;6147300;23;19923;-86
2023/01/09 13:15:11;;;;;;;;;;;;;;;;;;6169013;23;20338;-86
2023/01/09 13:17:45;;;;;;;;;;;;;;;;;;6145506;23;19920;-85
2023/01/09 13:20:15;;;;;;;;;;;;;;;;;;6143048;23;20444;-86
2023/01/09 13:22:48;;;;;;;;;;;;;;;;;;6195312;23;20190;-85
2023/01/09 13:25:15;;;;;;;;;;;;;;;;;;6174573;23;19998;-86
2023/01/09 13:27:42;;;;;;;;;;;;;;;;;;6198539;23;19926;-86
2023/01/09 13:30:23;;;;;;;;;;;;;;;;;;6142716;23;20308;-86
2023/01/09 13:32:49;;;;;;;;;;;;;;;;;;6142810;23;19924;-85
2023/01/09 13:35:16;;;;;;;;;;;;;;;;;;6137589;23;19924;-85
2023/01/09 13:38:00;;;;;;;;;;;;;;;;;;6163437;23;19966;-85
2023/01/09 13:40:31;;;;;;;;;;;;;;;;;;6165778;23;19995;-86
2023/01/09 13:43:13;;;;;;;;;;;;;;;;;;6121649;23;19943;-86
2023/01/09 13:45:41;;;;;;;;;;;;;;;;;;6135997;23;19920;-86
2023/01/09 13:48:09;;;;;;;;;;;;;;;;;;6139262;23;19927;-86
2023/01/09 13:50:35;;;;;;;;;;;;;;;;;;6141139;23;20049;-85
2023/01/09 13:53:02;;;;;;;;;;;;;;;;;;6136534;23;19935;-86
2023/01/09 13:55:34;;;;;;;;;;;;;;;;;;6138761;23;20480;-86
2023/01/09 13:58:13;;;;;;;;;;;;;;;;;;6148479;23;20015;-86
2023/01/09 14:00:40;;;;;;;;;;;;;;;;;;6142190;23;19974;-86
2023/01/09 14:03:08;;;;;;;;;;;;;;;;;;6134392;23;19917;-86
2023/01/09 14:05:34;;;;;;;;;;;;;;;;;;6162535;23;20448;-86
2023/01/09 14:08:10;;;;;;;;;;;;;;;;;;6133534;23;20063;-86
2023/01/09 14:10:40;;;;;;;;;;;;;;;;;;6177952;23;20208;-86
2023/01/09 14:13:06;;;;;;;;;;;;;;;;;;6200642;23;19919;-86
2023/01/09 14:15:53;;;;;;;;;;;;;;;;;;6227027;23;19924;-86
2023/01/09 14:18:22;;;;;;;;;;;;;;;;;;6223994;23;19920;-86
2023/01/09 14:20:50;;;;;;;;;;;;;;;;;;6226168;23;19920;-85
2023/01/09 14:23:18;;;;;;;;;;;;;;;;;;6197523;23;19916;-85
2023/01/09 14:25:45;;;;;;;;;;;;;;;;;;6227754;23;19916;-86
2023/01/09 14:28:14;;;;;;;;;;;;;;;;;;6204013;23;19919;-86
2023/01/09 14:30:40;;;;;;;;;;;;;;;;;;6205029;23;20349;-86
2023/01/09 14:33:13;;;;;;;;;;;;;;;;;;6229230;23;19924;-86
2023/01/09 14:35:41;;;;;;;;;;;;;;;;;;6202706;23;19923;-86
2023/01/09 14:38:14;;;;;;;;;;;;;;;;;;6228535;23;19925;-85
2023/01/09 14:40:47;;;;;;;;;;;;;;;;;;6233581;23;19973;-86
2023/01/09 14:43:18;;;;;;;;;;;;;;;;;;6229254;23;20248;-86
2023/01/09 14:45:55;;;;;;;;;;;;;;;;;;6230638;23;19919;-86
2023/01/09 14:48:23;;;;;;;;;;;;;;;;;;6204287;23;19916;-85
2023/01/09 17:04:33;;;;;;;;;;;;;;;;;;6282637;22;19949;-91
2023/01/09 17:07:16;;;;;;;;;;;;;;;;;;6230543;22;19925;-89
2023/01/09 17:13:17;;;;;;;;;;;;;;;;;;6182730;23;20301;-90
2023/01/09 17:34:24;;;;;;;;;;;;;;;;;;;;;
2023/01/09 17:37:31;;;;;;;;;;;;;;;;;;;;;
2023/01/09 17:43:36;;;;;;;;;;;;;;;;;;;;;
2023/01/09 17:46:25;;;;;;;;;;;;;;;;;;6062158;23;19977;-92
2023/01/09 17:52:07;;;;;;;;;;;;;;;;;;6105637;23;19954;-92
2023/01/09 18:07:28;;;;;;;;;;;;;;;;;;;;;
2023/01/09 18:26:18;;;;;;;;;;;;;;;;;;;;;
2023/01/09 18:38:18;;;;;;;;;;;;;;;;;;;;;
2023/01/09 19:20:28;;;;;;;;;;;;;;;;;;6302388;22;19923;-85
2023/01/09 19:27:15;;;;;;;;;;;;;;;;;;;;;
2023/01/09 21:24:29;;;;;;;;;;;;;;;;;;6308069;22;19922;-85
2023/01/09 21:27:14;;;;;;;;;;;;;;;;;;6316987;22;20336;-85
2023/01/09 21:33:16;;;;;;;;;;;;;;;;;;6278671;22;19918;-85
2023/01/09 21:54:27;;;;;;;;;;;;;;;;;;6085126;23;19935;-85
2023/01/09 21:57:18;;;;;;;;;;;;;;;;;;6090310;23;20634;-85
2023/01/09 23:39:48;;;;;;;;;;;;;;;;;;;;;
2023/01/09 23:45:46;;;;;;;;;;;;;;;;;;6193933;23;19923;-84
2023/01/09 23:48:17;;;;;;;;;;;;;;;;;;6194760;23;19920;-83
2023/01/09 23:50:56;;;;;;;;;;;;;;;;;;6195483;23;19927;-83
2023/01/09 23:53:22;;;;;;;;;;;;;;;;;;6171571;23;20292;-83
2023/01/09 23:55:54;;;;;;;;;;;;;;;;;;6196374;23;19925;-84
2023/01/09 23:58:22;;;;;;;;;;;;;;;;;;6170290;23;19991;-84
